createdAt,value
2019-05-29T00:02:33.479Z,101430.01
2019-05-29T00:05:08.259Z,101428.25
2019-05-29T00:07:41.776Z,101433.70
2019-05-29T00:10:16.075Z,101432.41
2019-05-29T00:12:49.559Z,101434.72
2019-05-29T00:15:23.036Z,101432.08
2019-05-29T00:17:56.598Z,101437.06
2019-05-29T00:20:30.133Z,101448.32
2019-05-29T00:23:03.690Z,101449.69
2019-05-29T00:25:37.182Z,101453.29
2019-05-29T00:28:10.684Z,101456.93
2019-05-29T00:30:44.156Z,101461.45
2019-05-29T00:33:18.351Z,101467.77
2019-05-29T00:35:51.976Z,101470.48
2019-05-29T00:38:25.471Z,101470.58
2019-05-29T00:40:59.028Z,101472.41
2019-05-29T00:43:32.603Z,101472.00
2019-05-29T00:46:07.240Z,101478.77
2019-05-29T00:48:40.831Z,101482.38
2019-05-29T00:51:15.103Z,101482.00
2019-05-29T00:53:48.713Z,101481.11
2019-05-29T00:56:22.176Z,101484.27
2019-05-29T00:58:55.676Z,101487.47
2019-05-29T01:01:29.280Z,101484.86
2019-05-29T01:04:02.883Z,101486.28
2019-05-29T01:06:36.338Z,101489.88
2019-05-29T01:09:10.349Z,101491.69
2019-05-29T01:11:44.112Z,101485.95
2019-05-29T01:14:17.663Z,101487.81
2019-05-29T01:16:51.261Z,101485.22
2019-05-29T01:19:25.182Z,101491.54
2019-05-29T01:21:58.719Z,101489.35
2019-05-29T01:24:32.296Z,101497.85
2019-05-29T01:27:05.826Z,101500.98
2019-05-29T01:29:39.464Z,101500.55
2019-05-29T01:32:13.470Z,101504.56
2019-05-29T01:34:47.046Z,101510.42
2019-05-29T01:37:20.469Z,101509.61
2019-05-29T01:39:53.960Z,101509.19
2019-05-29T01:42:27.775Z,101517.30
2019-05-29T01:45:07.947Z,101513.34
2019-05-29T01:47:36.629Z,101524.52
2019-05-29T01:50:10.336Z,101522.34
2019-05-29T01:52:43.821Z,101528.16
2019-05-29T01:55:17.879Z,101530.00
2019-05-29T01:57:51.512Z,101538.48
2019-05-29T02:00:25.383Z,101542.06
2019-05-29T02:02:58.960Z,101541.18
2019-05-29T02:05:32.559Z,101540.34
2019-05-29T02:08:06.099Z,101549.31
2019-05-29T02:10:39.620Z,101550.22
2019-05-29T02:13:13.093Z,101550.67
2019-05-29T02:15:46.651Z,101552.45
2019-05-29T02:18:20.776Z,101556.48
2019-05-29T02:20:54.320Z,101555.14
2019-05-29T02:23:28.285Z,101562.73
2019-05-29T02:26:01.896Z,101563.62
2019-05-29T02:28:35.357Z,101570.31
2019-05-29T02:31:08.974Z,101566.73
2019-05-29T02:33:42.438Z,101575.66
2019-05-29T02:36:15.920Z,101585.48
2019-05-29T02:38:49.400Z,101583.71
2019-05-29T02:41:24.141Z,101589.12
2019-05-29T02:43:58.141Z,101594.48
2019-05-29T02:46:31.665Z,101599.95
2019-05-29T02:49:05.345Z,101604.02
2019-05-29T02:51:38.917Z,101608.05
2019-05-29T02:54:12.522Z,101608.98
2019-05-29T02:56:46.017Z,101612.10
2019-05-29T02:59:20.893Z,101613.01
2019-05-29T03:01:54.711Z,101625.55
2019-05-29T03:04:29.862Z,101620.64
2019-05-29T03:07:03.521Z,101619.75
2019-05-29T03:09:37.423Z,101623.32
2019-05-29T03:12:11.003Z,101627.33
2019-05-29T03:14:44.533Z,101634.91
2019-05-29T03:17:18.013Z,101635.31
2019-05-29T03:19:51.477Z,101643.30
2019-05-29T03:22:26.282Z,101641.50
2019-05-29T03:24:59.955Z,101642.79
2019-05-29T03:27:33.951Z,101640.96
2019-05-29T03:30:08.353Z,101639.61
2019-05-29T03:32:47.745Z,101649.42
2019-05-29T03:35:16.981Z,101655.19
2019-05-29T03:37:50.500Z,101657.41
2019-05-29T03:40:24.031Z,101654.68
2019-05-29T03:42:57.529Z,101657.79
2019-05-29T03:45:31.742Z,101664.44
2019-05-29T03:48:06.368Z,101672.47
2019-05-29T03:50:39.901Z,101674.65
2019-05-29T03:53:13.399Z,101679.95
2019-05-29T03:55:46.873Z,101673.64
2019-05-29T03:58:20.361Z,101684.74
2019-05-29T04:00:54.188Z,101682.52
2019-05-29T04:03:28.982Z,101687.48
2019-05-29T04:06:02.616Z,101692.84
2019-05-29T04:08:38.249Z,101690.60
2019-05-29T04:11:11.445Z,101699.92
2019-05-29T04:13:45.015Z,101702.56
2019-05-29T04:16:21.524Z,101702.50
2019-05-29T04:18:57.447Z,101706.45
2019-05-29T04:21:34.068Z,101709.53
2019-05-29T04:24:07.946Z,101717.97
2019-05-29T04:26:41.558Z,101720.59
2019-05-29T04:29:15.799Z,101727.63
2019-05-29T04:31:49.266Z,101730.27
2019-05-29T04:34:22.914Z,101737.38
2019-05-29T04:36:56.386Z,101736.94
2019-05-29T04:39:30.606Z,101742.72
2019-05-29T04:42:04.410Z,101742.22
2019-05-29T04:44:39.109Z,101742.61
2019-05-29T04:47:13.114Z,101742.55
2019-05-29T04:49:46.638Z,101755.87
2019-05-29T04:52:20.219Z,101758.03
2019-05-29T04:54:53.779Z,101753.48
2019-05-29T04:57:27.262Z,101757.83
2019-05-29T05:00:00.748Z,101763.98
2019-05-29T05:02:35.064Z,101772.37
2019-05-29T05:05:09.007Z,101770.04
2019-05-29T05:07:42.478Z,101779.20
2019-05-29T05:10:27.722Z,101780.84
2019-05-29T05:13:01.336Z,101776.69
2019-05-29T05:15:36.031Z,101775.20
2019-05-29T05:18:09.889Z,101774.12
2019-05-29T05:20:43.443Z,101779.74
2019-05-29T05:23:16.970Z,101782.16
2019-05-29T05:25:50.607Z,101793.63
2019-05-29T05:28:24.158Z,101792.56
2019-05-29T05:30:57.751Z,101799.55
2019-05-29T05:33:32.366Z,101803.47
2019-05-29T05:36:06.028Z,101810.95
2019-05-29T05:38:39.570Z,101809.06
2019-05-29T05:41:13.164Z,101812.91
2019-05-29T05:43:46.627Z,101819.02
2019-05-29T05:46:20.148Z,101821.59
2019-05-29T05:48:53.697Z,101835.45
2019-05-29T05:51:27.205Z,101833.10
2019-05-29T05:54:00.686Z,101840.09
2019-05-29T05:56:35.528Z,101843.08
2019-05-29T05:59:09.189Z,101842.88
2019-05-29T06:01:42.709Z,101843.19
2019-05-29T06:04:16.254Z,101842.98
2019-05-29T06:06:49.833Z,101853.54
2019-05-29T06:09:23.390Z,101859.69
2019-05-29T06:11:56.867Z,101854.28
2019-05-29T06:14:30.419Z,101856.38
2019-05-29T06:17:04.007Z,101862.03
2019-05-29T06:19:38.908Z,101861.95
2019-05-29T06:22:12.575Z,101860.05
2019-05-29T06:24:46.211Z,101858.62
2019-05-29T06:27:19.903Z,101868.86
2019-05-29T06:29:53.451Z,101868.26
2019-05-29T06:32:26.939Z,101871.59
2019-05-29T06:35:00.571Z,101874.77
2019-05-29T06:37:35.491Z,101875.02
2019-05-29T06:40:09.722Z,101877.48
2019-05-29T06:42:43.920Z,101876.25
2019-05-29T06:45:20.579Z,101878.27
2019-05-29T06:47:54.161Z,101882.36
2019-05-29T06:50:27.624Z,101886.73
2019-05-29T06:53:01.254Z,101889.89
2019-05-29T06:55:35.772Z,101909.27
2019-05-29T06:58:09.499Z,101903.03
2019-05-29T07:00:43.226Z,101908.13
2019-05-29T07:03:16.769Z,101908.13
2019-05-29T07:05:52.474Z,101910.27
2019-05-29T07:08:38.114Z,101910.27
2019-05-29T07:11:00.870Z,101920.92
2019-05-29T07:13:35.408Z,101923.64
2019-05-29T07:16:09.710Z,101917.36
2019-05-29T07:19:21.579Z,101923.13
2019-05-29T07:21:18.613Z,101918.48
2019-05-29T07:23:52.198Z,101922.07
2019-05-29T07:26:25.783Z,101924.78
2019-05-29T07:29:08.106Z,101932.70
2019-05-29T07:31:34.674Z,101941.82
2019-05-29T07:34:08.237Z,101948.20
2019-05-29T07:36:41.987Z,101941.94
2019-05-29T07:39:15.781Z,101941.70
2019-05-29T07:41:49.237Z,101949.30
2019-05-29T07:44:22.882Z,101945.91
2019-05-29T07:46:56.424Z,101937.95
2019-05-29T07:49:39.043Z,101948.41
2019-05-29T07:52:05.382Z,101941.47
2019-05-29T07:54:39.998Z,101939.66
2019-05-29T07:57:13.871Z,101944.93
2019-05-29T07:59:47.419Z,101948.25
2019-05-29T08:02:20.908Z,101951.91
2019-05-29T08:04:54.407Z,101943.81
2019-05-29T08:07:27.947Z,101951.86
2019-05-29T08:10:01.599Z,101959.20
2019-05-29T08:12:35.055Z,101961.30
2019-05-29T08:15:09.083Z,101963.92
2019-05-29T08:17:43.949Z,101955.55
2019-05-29T08:20:17.913Z,101970.67
2019-05-29T08:22:51.687Z,101959.63
2019-05-29T08:25:25.213Z,101966.97
2019-05-29T08:27:58.674Z,101973.66
2019-05-29T08:30:32.313Z,101969.78
2019-05-29T08:33:05.915Z,101979.37
2019-05-29T08:35:41.384Z,101981.15
2019-05-29T08:38:14.663Z,101988.30
2019-05-29T08:40:49.419Z,101992.65
2019-05-29T08:43:23.173Z,101987.23
2019-05-29T08:45:56.738Z,101986.59
2019-05-29T08:48:30.226Z,101987.52
2019-05-29T08:51:03.766Z,101990.45
2019-05-29T08:53:37.309Z,101996.61
2019-05-29T08:56:10.894Z,101991.84
2019-05-29T08:58:44.474Z,101998.23
2019-05-29T09:01:18.061Z,102005.66
2019-05-29T09:03:53.175Z,102006.23
2019-05-29T09:06:27.009Z,102007.58
2019-05-29T12:47:58.174Z,102045.83
2019-05-29T12:50:34.644Z,102047.62
2019-05-29T12:53:07.604Z,102047.50
2019-05-29T12:55:41.166Z,102049.27
2019-05-29T12:58:14.718Z,102048.80
2019-05-29T13:00:48.273Z,102052.32
2019-05-29T13:03:19.556Z,102054.27
2019-05-29T13:05:50.591Z,102050.87
2019-05-29T13:08:21.808Z,102057.27
2019-05-29T13:10:52.798Z,102048.64
2019-05-29T13:13:23.730Z,102048.24
2019-05-29T13:15:54.871Z,102048.49
2019-05-29T13:18:26.226Z,102043.86
2019-05-29T13:20:57.256Z,102051.95
2019-05-29T13:23:28.299Z,102065.06
2019-05-29T13:25:59.457Z,102049.10
2019-05-29T13:28:30.791Z,102053.92
2019-05-29T13:31:02.049Z,102049.17
2019-05-29T13:33:32.979Z,102047.80
2019-05-29T13:36:04.471Z,102052.75
2019-05-29T13:38:35.746Z,102053.19
2019-05-29T13:41:06.795Z,102055.75
2019-05-29T13:43:37.832Z,102052.70
2019-05-29T13:46:09.034Z,102052.23
2019-05-29T13:48:40.042Z,102048.50
2019-05-29T13:51:11.082Z,102047.67
2019-05-29T13:53:42.089Z,102047.39
2019-05-29T13:56:13.127Z,102043.09
2019-05-29T13:58:44.010Z,102036.97
2019-05-29T14:01:14.944Z,102045.19
2019-05-29T14:03:50.385Z,102038.19
2019-05-29T14:06:19.026Z,102042.86
2019-05-29T14:08:49.859Z,102040.88
2019-05-29T14:11:20.804Z,102037.30
2019-05-29T14:13:51.765Z,102045.05
2019-05-29T14:16:22.754Z,102043.09
2019-05-29T14:18:53.685Z,102040.84
2019-05-29T14:21:24.723Z,102050.69
2019-05-29T14:23:55.757Z,102049.84
2019-05-29T14:26:26.690Z,102049.09
2019-05-29T14:28:57.802Z,102055.66
2019-05-29T14:31:28.853Z,102049.45
2019-05-29T14:34:00.936Z,102048.30
2019-05-29T14:36:32.098Z,102055.73
2019-05-29T14:39:05.764Z,102043.16
2019-05-29T14:41:36.946Z,102050.83
2019-05-29T14:44:08.046Z,102044.30
2019-05-29T14:46:39.053Z,102037.53
2019-05-29T14:49:10.873Z,102037.53
2019-05-29T14:51:42.665Z,102053.87
2019-05-29T14:54:13.599Z,102042.61
2019-05-29T14:56:44.791Z,102050.87
2019-05-29T14:59:15.918Z,102043.14
2019-05-29T15:01:51.038Z,102047.01
2019-05-29T15:04:19.819Z,102046.63
2019-05-29T15:06:50.947Z,102040.80
2019-05-29T15:09:23.745Z,102048.25
2019-05-29T15:11:54.934Z,102043.72
2019-05-29T15:14:25.950Z,102049.03
2019-05-29T15:16:56.918Z,102048.30
2019-05-29T15:19:27.993Z,102054.02
2019-05-29T15:21:58.993Z,102059.48
2019-05-29T15:24:31.506Z,102060.13
2019-05-29T15:27:04.137Z,102051.98
2019-05-29T15:29:35.146Z,102061.00
2019-05-29T15:32:06.343Z,102061.89
2019-05-29T15:34:37.474Z,102052.63
2019-05-29T15:37:12.182Z,102056.96
2019-05-29T15:39:41.906Z,102060.17
2019-05-29T15:42:12.972Z,102065.50
2019-05-29T15:44:44.128Z,102066.16
2019-05-29T15:47:15.310Z,102086.66
2019-05-29T15:49:46.135Z,102077.94
2019-05-29T15:52:17.508Z,102074.13
2019-05-29T15:54:48.594Z,102058.11
2019-05-29T15:57:19.611Z,102066.80
2019-05-29T15:59:50.720Z,102069.05
2019-05-29T16:02:21.883Z,102062.12
2019-05-29T16:04:54.101Z,102074.05
2019-05-29T16:07:25.115Z,102066.33
2019-05-29T16:09:56.051Z,102056.34
2019-05-29T16:12:30.727Z,102055.79
2019-05-29T16:15:00.126Z,102058.90
2019-05-29T16:17:30.987Z,102055.80
2019-05-29T16:20:06.621Z,102070.47
2019-05-29T16:22:37.793Z,102057.12
2019-05-29T16:25:08.949Z,102062.69
2019-05-29T16:27:40.130Z,102057.60
2019-05-29T16:30:11.743Z,102072.88
2019-05-29T16:32:42.781Z,102057.61
2019-05-29T16:35:15.113Z,102051.29
2019-05-29T16:37:46.019Z,102054.13
2019-05-29T16:40:18.248Z,102063.67
2019-05-29T16:42:49.608Z,102054.16
2019-05-29T16:45:20.592Z,102052.65
2019-05-29T16:47:53.776Z,102049.77
2019-05-29T16:50:24.898Z,102059.03
2019-05-29T16:52:55.737Z,102052.56
2019-05-29T16:55:26.675Z,102055.26
2019-05-29T16:57:57.606Z,102052.08
2019-05-29T17:00:28.723Z,102051.81
2019-05-29T17:02:59.757Z,102057.13
2019-05-29T17:05:31.194Z,102060.72
2019-05-29T17:08:02.199Z,102064.58
2019-05-29T17:10:35.120Z,102057.34
2019-05-29T17:13:06.758Z,102072.70
2019-05-29T17:15:37.873Z,102055.06
2019-05-29T17:18:08.818Z,102073.40
2019-05-29T17:20:45.028Z,102063.55
2019-05-29T17:23:17.068Z,102062.59
2019-05-29T17:25:48.259Z,102061.69
2019-05-29T17:28:23.310Z,102060.23
2019-05-29T17:30:52.215Z,102056.04
2019-05-29T17:33:23.351Z,102065.36
2019-05-29T17:35:54.192Z,102055.60
2019-05-29T17:38:26.046Z,102056.28
2019-05-29T17:40:57.168Z,102071.00
2019-05-29T17:43:30.110Z,102057.87
2019-05-29T17:46:01.207Z,102057.78
2019-05-29T17:48:32.063Z,102058.55
2019-05-29T17:51:03.300Z,102059.41
2019-05-29T17:53:34.233Z,102067.28
2019-05-29T17:56:05.327Z,102052.61
2019-05-29T17:58:36.375Z,102049.07
2019-05-29T18:01:07.523Z,102053.41
2019-05-29T18:03:38.515Z,102054.91
2019-05-29T18:06:09.522Z,102048.61
2019-05-29T18:08:40.558Z,102061.17
2019-05-29T18:11:13.785Z,102061.23
2019-05-29T18:13:44.719Z,102066.33
2019-05-29T18:16:15.756Z,102057.77
2019-05-29T18:18:46.793Z,102060.53
2019-05-29T18:21:17.789Z,102057.20
2019-05-29T18:23:48.818Z,102056.02
2019-05-29T18:26:20.042Z,102061.04
2019-05-29T18:28:50.991Z,102057.84
2019-05-29T18:31:22.539Z,102059.05
2019-05-29T18:33:53.639Z,102056.64
2019-05-29T18:36:25.318Z,102055.73
2019-05-29T18:38:56.491Z,102053.19
2019-05-29T18:41:28.509Z,102063.67
2019-05-29T18:43:59.686Z,102061.38
2019-05-29T18:46:30.784Z,102059.06
2019-05-29T18:49:01.804Z,102058.97
2019-05-29T18:51:32.916Z,102071.95
2019-05-29T18:54:04.044Z,102065.48
2019-05-29T18:56:34.977Z,102066.28
2019-05-29T18:59:06.020Z,102064.34
2019-05-29T19:01:37.048Z,102068.13
2019-05-29T19:04:08.179Z,102068.31
2019-05-29T19:06:40.997Z,102069.00
2019-05-29T19:09:12.055Z,102084.58
2019-05-29T19:11:43.168Z,102071.23
2019-05-29T19:14:16.007Z,102083.70
2019-05-29T19:16:46.908Z,102076.84
2019-05-29T19:19:17.932Z,102070.96
2019-05-29T19:21:48.874Z,102079.45
2019-05-29T19:24:19.996Z,102071.27
2019-05-29T19:26:50.916Z,102080.23
2019-05-29T19:29:22.957Z,102081.06
2019-05-29T19:31:54.442Z,102091.41
2019-05-29T19:34:25.372Z,102095.78
2019-05-29T19:36:56.365Z,102095.73
2019-05-29T19:39:28.023Z,102100.96
2019-05-29T19:41:59.260Z,102098.16
2019-05-29T19:44:32.550Z,102100.89
2019-05-29T19:47:05.505Z,102108.05
2019-05-29T19:49:36.529Z,102108.05
2019-05-29T19:52:07.457Z,102106.64
2019-05-29T19:54:38.487Z,102107.41
2019-05-29T19:57:09.514Z,102114.44
2019-05-29T19:59:40.521Z,102129.94
2019-05-29T20:02:11.569Z,102122.91
2019-05-29T20:04:42.688Z,102119.47
2019-05-29T20:07:14.190Z,102118.28
2019-05-29T20:09:48.408Z,102119.86
2019-05-29T20:12:20.715Z,102124.55
2019-05-29T20:14:53.320Z,102128.84
2019-05-29T20:17:24.300Z,102133.52
2019-05-29T20:19:55.235Z,102126.48
2019-05-29T20:22:26.261Z,102130.27
2019-05-29T20:24:57.764Z,102130.94
2019-05-29T20:27:29.993Z,102130.19
2019-05-29T20:30:01.309Z,102130.81
2019-05-29T20:32:32.563Z,102127.79
2019-05-29T20:35:04.478Z,102139.70
2019-05-29T20:37:36.271Z,102128.60
2019-05-29T20:40:08.521Z,102122.51
2019-05-29T20:42:39.649Z,102125.36
2019-05-29T20:45:10.963Z,102127.73
2019-05-29T20:47:42.159Z,102132.34
2019-05-29T20:50:13.886Z,102129.33
2019-05-29T20:52:44.890Z,102124.93
2019-05-29T20:55:16.298Z,102134.85
2019-05-29T20:57:47.232Z,102135.41
2019-05-29T21:00:18.859Z,102131.03
2019-05-29T21:02:49.788Z,102138.37
2019-05-29T21:05:20.773Z,102139.87
2019-05-29T21:07:51.667Z,102139.98
2019-05-29T21:10:22.785Z,102138.31
2019-05-29T21:12:53.905Z,102145.13
2019-05-29T21:15:27.189Z,102142.96
2019-05-29T21:17:58.230Z,102138.06
2019-05-29T21:20:29.314Z,102139.01
2019-05-29T21:23:00.466Z,102142.23
2019-05-29T21:25:31.600Z,102141.91
2019-05-29T21:28:02.817Z,102150.97
2019-05-29T21:30:35.440Z,102154.20
2019-05-29T21:33:06.881Z,102155.59
2019-05-29T21:35:38.056Z,102164.20
2019-05-29T21:38:12.217Z,102152.63
2019-05-29T21:40:52.624Z,102154.06
2019-05-29T21:43:26.725Z,102152.78
2019-05-29T21:45:57.847Z,102164.94
2019-05-29T21:48:31.532Z,102148.42
2019-05-29T21:51:05.116Z,102147.17
2019-05-29T21:53:41.761Z,102154.43
2019-05-29T21:56:19.942Z,102167.08
2019-05-29T21:59:03.134Z,102153.69
2019-05-29T22:01:24.715Z,102152.41
2019-05-29T22:03:58.393Z,102149.38
2019-05-29T22:06:29.319Z,102146.30
2019-05-29T22:09:00.612Z,102146.82
2019-05-29T22:11:31.908Z,102144.22
2019-05-29T22:14:09.621Z,102148.29
2019-05-29T22:16:42.590Z,102157.77
2019-05-29T22:19:13.612Z,102146.56
2019-05-29T22:21:44.658Z,102139.91
2019-05-29T22:24:22.949Z,102136.40
2019-05-29T22:26:55.185Z,102143.18
2019-05-29T22:29:26.441Z,102136.54
2019-05-29T22:31:57.768Z,102130.33
2019-05-29T22:34:28.719Z,102129.05
2019-05-29T22:36:59.805Z,102125.45
2019-05-29T22:39:30.912Z,102124.52
2019-05-29T22:42:02.248Z,102131.22
2019-05-29T22:44:34.534Z,102128.49
2019-05-29T22:47:05.514Z,102132.95
2019-05-29T22:49:36.868Z,102129.81
2019-05-29T22:52:07.706Z,102133.84
2019-05-29T22:54:40.561Z,102134.73
2019-05-29T22:57:11.827Z,102131.17
2019-05-29T22:59:44.107Z,102141.98
2019-05-29T23:02:17.373Z,102122.72
2019-05-29T23:04:48.411Z,102117.84
2019-05-29T23:07:19.581Z,102116.96
2019-05-29T23:09:52.017Z,102119.27
2019-05-29T23:12:25.098Z,102115.75
2019-05-29T23:15:00.650Z,102126.58
2019-05-29T23:17:31.928Z,102114.06
2019-05-29T23:20:07.654Z,102111.39
2019-05-29T23:22:40.936Z,102099.80
2019-05-29T23:25:12.034Z,102111.47
2019-05-29T23:27:46.438Z,102110.63
2019-05-29T23:30:17.814Z,102101.73
2019-05-29T23:32:48.756Z,102109.40
2019-05-29T23:35:22.578Z,102100.01
2019-05-29T23:37:57.001Z,102107.23
2019-05-29T23:40:28.348Z,102097.87
2019-05-29T23:42:59.509Z,102101.93
2019-05-29T23:45:30.592Z,102098.84
2019-05-29T23:48:01.843Z,102094.42
2019-05-29T23:50:33.065Z,102099.85
2019-05-29T23:53:04.139Z,102099.42
2019-05-29T23:55:35.167Z,102095.89
2019-05-29T23:58:08.149Z,102090.13
